sensor_id;sensor_type;location;lat;lon;timestamp;temperature;humidity
42141;DHT22;27809;51.864;5.646;2023-05-10T00:01:53;13.10;99.90
42141;DHT22;27809;51.864;5.646;2023-05-10T00:04:19;13.10;99.90
42141;DHT22;27809;51.864;5.646;2023-05-10T00:06:45;13.10;99.90
42141;DHT22;27809;51.864;5.646;2023-05-10T00:09:11;13.10;99.90
42141;DHT22;27809;51.864;5.646;2023-05-10T00:11:36;13.00;99.90
42141;DHT22;27809;51.864;5.646;2023-05-10T00:14:02;13.00;99.90
42141;DHT22;27809;51.864;5.646;2023-05-10T00:16:27;12.90;99.90
42141;DHT22;27809;51.864;5.646;2023-05-10T00:18:53;12.90;99.90
42141;DHT22;27809;51.864;5.646;2023-05-10T00:21:18;13.10;99.90
42141;DHT22;27809;51.864;5.646;2023-05-10T00:23:44;13.00;99.90
42141;DHT22;27809;51.864;5.646;2023-05-10T00:26:09;12.90;99.90
42141;DHT22;27809;51.864;5.646;2023-05-10T00:28:35;12.90;99.90
42141;DHT22;27809;51.864;5.646;2023-05-10T00:31:00;12.90;99.90
42141;DHT22;27809;51.864;5.646;2023-05-10T00:33:26;12.90;99.90
42141;DHT22;27809;51.864;5.646;2023-05-10T00:35:51;12.90;99.90
42141;DHT22;27809;51.864;5.646;2023-05-10T00:38:17;13.00;99.90
42141;DHT22;27809;51.864;5.646;2023-05-10T00:40:43;13.00;99.90
42141;DHT22;27809;51.864;5.646;2023-05-10T00:43:09;13.10;99.90
42141;DHT22;27809;51.864;5.646;2023-05-10T00:45:35;13.10;99.90
42141;DHT22;27809;51.864;5.646;2023-05-10T00:48:02;13.10;99.90
42141;DHT22;27809;51.864;5.646;2023-05-10T00:50:28;13.10;99.90
42141;DHT22;27809;51.864;5.646;2023-05-10T00:52:54;13.10;99.90
42141;DHT22;27809;51.864;5.646;2023-05-10T00:55:20;13.10;99.90
42141;DHT22;27809;51.864;5.646;2023-05-10T00:57:46;13.10;99.90
42141;DHT22;27809;51.864;5.646;2023-05-10T01:00:12;13.10;99.90
42141;DHT22;27809;51.864;5.646;2023-05-10T01:02:44;13.20;99.90
42141;DHT22;27809;51.864;5.646;2023-05-10T01:05:09;13.20;99.90
42141;DHT22;27809;51.864;5.646;2023-05-10T01:07:35;13.20;99.90
42141;DHT22;27809;51.864;5.646;2023-05-10T01:10:00;13.20;99.90
42141;DHT22;27809;51.864;5.646;2023-05-10T01:12:26;13.30;99.90
42141;DHT22;27809;51.864;5.646;2023-05-10T01:14:52;13.20;99.90
42141;DHT22;27809;51.864;5.646;2023-05-10T01:17:18;13.20;99.90
42141;DHT22;27809;51.864;5.646;2023-05-10T01:19:44;13.20;99.90
42141;DHT22;27809;51.864;5.646;2023-05-10T01:28:23;13.20;99.90
42141;DHT22;27809;51.864;5.646;2023-05-10T01:31:18;13.20;99.90
42141;DHT22;27809;51.864;5.646;2023-05-10T01:33:43;13.20;99.90
42141;DHT22;27809;51.864;5.646;2023-05-10T01:36:19;13.20;99.90
42141;DHT22;27809;51.864;5.646;2023-05-10T01:39:05;13.20;99.90
42141;DHT22;27809;51.864;5.646;2023-05-10T01:41:52;13.10;99.90
42141;DHT22;27809;51.864;5.646;2023-05-10T01:47:12;13.20;99.90
42141;DHT22;27809;51.864;5.646;2023-05-10T01:49:47;13.10;99.90
42141;DHT22;27809;51.864;5.646;2023-05-10T01:52:16;13.20;99.90
42141;DHT22;27809;51.864;5.646;2023-05-10T01:55:05;13.10;99.90
42141;DHT22;27809;51.864;5.646;2023-05-10T01:57:34;13.20;99.90
42141;DHT22;27809;51.864;5.646;2023-05-10T02:00:02;13.10;99.90
42141;DHT22;27809;51.864;5.646;2023-05-10T02:02:30;13.10;99.90
42141;DHT22;27809;51.864;5.646;2023-05-10T02:04:59;13.10;99.90
42141;DHT22;27809;51.864;5.646;2023-05-10T02:07:26;13.10;99.90
42141;DHT22;27809;51.864;5.646;2023-05-10T02:09:53;13.00;99.90
42141;DHT22;27809;51.864;5.646;2023-05-10T02:12:20;13.00;99.90
42141;DHT22;27809;51.864;5.646;2023-05-10T02:14:47;13.00;99.90
42141;DHT22;27809;51.864;5.646;2023-05-10T02:17:13;13.00;99.90
42141;DHT22;27809;51.864;5.646;2023-05-10T02:19:41;13.00;99.90
42141;DHT22;27809;51.864;5.646;2023-05-10T02:22:08;12.90;99.90
42141;DHT22;27809;51.864;5.646;2023-05-10T02:24:34;12.90;99.90
42141;DHT22;27809;51.864;5.646;2023-05-10T02:27:02;12.90;99.90
42141;DHT22;27809;51.864;5.646;2023-05-10T02:29:30;12.90;99.90
42141;DHT22;27809;51.864;5.646;2023-05-10T02:31:57;12.80;99.90
42141;DHT22;27809;51.864;5.646;2023-05-10T02:34:25;12.80;99.90
42141;DHT22;27809;51.864;5.646;2023-05-10T02:36:52;12.70;99.90
42141;DHT22;27809;51.864;5.646;2023-05-10T02:39:19;12.70;99.90
42141;DHT22;27809;51.864;5.646;2023-05-10T02:41:46;12.70;99.90
42141;DHT22;27809;51.864;5.646;2023-05-10T02:44:15;12.70;99.90
42141;DHT22;27809;51.864;5.646;2023-05-10T02:46:42;12.80;99.90
42141;DHT22;27809;51.864;5.646;2023-05-10T02:49:08;12.70;99.90
42141;DHT22;27809;51.864;5.646;2023-05-10T02:51:37;12.70;99.90
42141;DHT22;27809;51.864;5.646;2023-05-10T02:54:15;12.70;99.90
42141;DHT22;27809;51.864;5.646;2023-05-10T02:56:48;12.60;99.90
42141;DHT22;27809;51.864;5.646;2023-05-10T02:59:15;12.60;99.90
42141;DHT22;27809;51.864;5.646;2023-05-10T03:01:41;12.70;99.90
42141;DHT22;27809;51.864;5.646;2023-05-10T03:04:07;12.70;99.90
42141;DHT22;27809;51.864;5.646;2023-05-10T03:06:32;12.70;99.90
42141;DHT22;27809;51.864;5.646;2023-05-10T03:08:58;12.60;99.90
42141;DHT22;27809;51.864;5.646;2023-05-10T03:17:10;12.70;99.90
42141;DHT22;27809;51.864;5.646;2023-05-10T03:19:55;12.60;99.90
42141;DHT22;27809;51.864;5.646;2023-05-10T03:22:46;12.70;99.90
42141;DHT22;27809;51.864;5.646;2023-05-10T03:25:10;12.60;99.90
42141;DHT22;27809;51.864;5.646;2023-05-10T03:27:40;12.70;99.90
42141;DHT22;27809;51.864;5.646;2023-05-10T03:30:08;12.60;99.90
42141;DHT22;27809;51.864;5.646;2023-05-10T03:32:34;12.70;99.90
42141;DHT22;27809;51.864;5.646;2023-05-10T03:35:05;12.70;99.90
42141;DHT22;27809;51.864;5.646;2023-05-10T03:37:31;12.70;99.90
42141;DHT22;27809;51.864;5.646;2023-05-10T03:39:56;12.70;99.90
42141;DHT22;27809;51.864;5.646;2023-05-10T03:42:22;12.70;99.90
42141;DHT22;27809;51.864;5.646;2023-05-10T03:44:47;12.70;99.90
42141;DHT22;27809;51.864;5.646;2023-05-10T03:47:14;12.70;99.90
42141;DHT22;27809;51.864;5.646;2023-05-10T03:49:40;12.70;99.90
42141;DHT22;27809;51.864;5.646;2023-05-10T03:52:06;12.70;99.90
42141;DHT22;27809;51.864;5.646;2023-05-10T03:54:31;12.70;99.90
42141;DHT22;27809;51.864;5.646;2023-05-10T03:56:58;12.70;99.90
42141;DHT22;27809;51.864;5.646;2023-05-10T03:59:23;12.70;99.90
42141;DHT22;27809;51.864;5.646;2023-05-10T04:01:49;12.80;99.90
42141;DHT22;27809;51.864;5.646;2023-05-10T04:04:15;12.80;99.90
42141;DHT22;27809;51.864;5.646;2023-05-10T04:06:40;12.80;99.90
42141;DHT22;27809;51.864;5.646;2023-05-10T04:09:06;12.90;99.90
42141;DHT22;27809;51.864;5.646;2023-05-10T04:11:31;12.80;99.90
42141;DHT22;27809;51.864;5.646;2023-05-10T04:13:57;12.80;99.90
42141;DHT22;27809;51.864;5.646;2023-05-10T04:16:22;12.80;99.90
42141;DHT22;27809;51.864;5.646;2023-05-10T04:18:48;12.80;99.90
42141;DHT22;27809;51.864;5.646;2023-05-10T04:21:14;12.90;99.90
42141;DHT22;27809;51.864;5.646;2023-05-10T04:23:40;12.80;99.90
42141;DHT22;27809;51.864;5.646;2023-05-10T04:26:06;12.80;99.90
42141;DHT22;27809;51.864;5.646;2023-05-10T04:28:31;12.80;99.90
42141;DHT22;27809;51.864;5.646;2023-05-10T04:31:04;12.80;99.90
42141;DHT22;27809;51.864;5.646;2023-05-10T04:33:30;12.80;99.90
42141;DHT22;27809;51.864;5.646;2023-05-10T04:35:56;12.80;99.90
42141;DHT22;27809;51.864;5.646;2023-05-10T04:38:21;12.90;99.90
42141;DHT22;27809;51.864;5.646;2023-05-10T04:40:47;12.90;99.90
42141;DHT22;27809;51.864;5.646;2023-05-10T04:43:12;12.90;99.90
42141;DHT22;27809;51.864;5.646;2023-05-10T04:45:38;12.90;99.90
42141;DHT22;27809;51.864;5.646;2023-05-10T04:48:04;12.90;99.90
42141;DHT22;27809;51.864;5.646;2023-05-10T04:50:30;12.90;99.90
42141;DHT22;27809;51.864;5.646;2023-05-10T04:52:55;12.80;99.90
42141;DHT22;27809;51.864;5.646;2023-05-10T04:55:21;12.90;99.90
42141;DHT22;27809;51.864;5.646;2023-05-10T04:57:46;12.90;99.90
42141;DHT22;27809;51.864;5.646;2023-05-10T05:00:12;12.90;99.90
42141;DHT22;27809;51.864;5.646;2023-05-10T05:02:38;13.00;99.90
42141;DHT22;27809;51.864;5.646;2023-05-10T05:05:04;13.00;99.90
42141;DHT22;27809;51.864;5.646;2023-05-10T05:07:29;13.00;99.90
42141;DHT22;27809;51.864;5.646;2023-05-10T05:09:56;13.10;99.90
42141;DHT22;27809;51.864;5.646;2023-05-10T05:12:21;13.20;99.90
42141;DHT22;27809;51.864;5.646;2023-05-10T05:14:47;13.10;99.90
42141;DHT22;27809;51.864;5.646;2023-05-10T05:17:12;13.10;99.90
42141;DHT22;27809;51.864;5.646;2023-05-10T05:19:38;13.20;99.90
42141;DHT22;27809;51.864;5.646;2023-05-10T05:22:03;13.10;99.90
42141;DHT22;27809;51.864;5.646;2023-05-10T05:24:35;13.10;99.90
42141;DHT22;27809;51.864;5.646;2023-05-10T05:27:01;13.20;99.90
42141;DHT22;27809;51.864;5.646;2023-05-10T05:29:27;13.20;99.90
42141;DHT22;27809;51.864;5.646;2023-05-10T05:31:52;13.20;99.90
42141;DHT22;27809;51.864;5.646;2023-05-10T05:34:18;13.10;99.90
42141;DHT22;27809;51.864;5.646;2023-05-10T05:36:45;13.20;99.90
42141;DHT22;27809;51.864;5.646;2023-05-10T05:39:11;13.20;99.90
42141;DHT22;27809;51.864;5.646;2023-05-10T05:41:36;13.20;99.90
42141;DHT22;27809;51.864;5.646;2023-05-10T05:44:02;13.20;99.90
42141;DHT22;27809;51.864;5.646;2023-05-10T05:46:27;13.20;99.90
42141;DHT22;27809;51.864;5.646;2023-05-10T05:48:53;13.30;99.90
42141;DHT22;27809;51.864;5.646;2023-05-10T05:51:18;13.30;99.90
42141;DHT22;27809;51.864;5.646;2023-05-10T05:53:44;13.20;99.90
42141;DHT22;27809;51.864;5.646;2023-05-10T05:56:09;13.30;99.90
42141;DHT22;27809;51.864;5.646;2023-05-10T05:58:35;13.30;99.90
42141;DHT22;27809;51.864;5.646;2023-05-10T06:01:00;13.30;99.90
42141;DHT22;27809;51.864;5.646;2023-05-10T06:03:26;13.40;99.90
42141;DHT22;27809;51.864;5.646;2023-05-10T06:05:52;13.40;99.90
42141;DHT22;27809;51.864;5.646;2023-05-10T06:08:17;13.40;99.90
42141;DHT22;27809;51.864;5.646;2023-05-10T06:10:43;13.40;99.90
42141;DHT22;27809;51.864;5.646;2023-05-10T06:13:09;13.40;99.90
42141;DHT22;27809;51.864;5.646;2023-05-10T06:15:35;13.40;99.90
42141;DHT22;27809;51.864;5.646;2023-05-10T06:18:00;13.30;99.90
42141;DHT22;27809;51.864;5.646;2023-05-10T06:20:26;13.30;99.90
42141;DHT22;27809;51.864;5.646;2023-05-10T06:22:51;13.30;99.90
42141;DHT22;27809;51.864;5.646;2023-05-10T06:25:17;13.20;99.90
42141;DHT22;27809;51.864;5.646;2023-05-10T06:27:44;13.20;99.90
42141;DHT22;27809;51.864;5.646;2023-05-10T06:30:09;13.30;99.90
42141;DHT22;27809;51.864;5.646;2023-05-10T06:32:35;13.30;99.90
42141;DHT22;27809;51.864;5.646;2023-05-10T06:35:01;13.20;99.90
42141;DHT22;27809;51.864;5.646;2023-05-10T06:37:26;13.30;99.90
42141;DHT22;27809;51.864;5.646;2023-05-10T06:39:52;13.30;99.90
42141;DHT22;27809;51.864;5.646;2023-05-10T06:42:17;13.30;99.90
42141;DHT22;27809;51.864;5.646;2023-05-10T06:44:43;13.20;99.90
42141;DHT22;27809;51.864;5.646;2023-05-10T06:47:08;13.30;99.90
42141;DHT22;27809;51.864;5.646;2023-05-10T06:49:34;13.10;99.90
42141;DHT22;27809;51.864;5.646;2023-05-10T06:52:00;13.20;99.90
42141;DHT22;27809;51.864;5.646;2023-05-10T06:54:25;13.20;99.90
42141;DHT22;27809;51.864;5.646;2023-05-10T06:56:51;13.20;99.90
42141;DHT22;27809;51.864;5.646;2023-05-10T06:59:17;13.10;99.90
42141;DHT22;27809;51.864;5.646;2023-05-10T07:01:44;13.20;99.90
42141;DHT22;27809;51.864;5.646;2023-05-10T07:04:09;13.20;99.90
42141;DHT22;27809;51.864;5.646;2023-05-10T07:06:35;13.20;99.90
42141;DHT22;27809;51.864;5.646;2023-05-10T07:09:01;13.20;99.90
42141;DHT22;27809;51.864;5.646;2023-05-10T07:11:26;13.20;99.90
42141;DHT22;27809;51.864;5.646;2023-05-10T07:13:52;13.20;99.90
42141;DHT22;27809;51.864;5.646;2023-05-10T07:16:18;13.20;99.90
42141;DHT22;27809;51.864;5.646;2023-05-10T07:18:43;13.20;99.90
42141;DHT22;27809;51.864;5.646;2023-05-10T07:21:09;13.20;99.90
42141;DHT22;27809;51.864;5.646;2023-05-10T07:23:34;13.30;99.90
42141;DHT22;27809;51.864;5.646;2023-05-10T07:26:00;13.30;99.90
42141;DHT22;27809;51.864;5.646;2023-05-10T07:28:27;13.30;99.90
42141;DHT22;27809;51.864;5.646;2023-05-10T07:30:53;13.30;99.90
42141;DHT22;27809;51.864;5.646;2023-05-10T07:33:18;13.50;99.90
42141;DHT22;27809;51.864;5.646;2023-05-10T07:35:44;13.50;99.90
42141;DHT22;27809;51.864;5.646;2023-05-10T07:38:09;13.60;99.90
42141;DHT22;27809;51.864;5.646;2023-05-10T07:40:36;13.60;99.90
42141;DHT22;27809;51.864;5.646;2023-05-10T07:43:02;13.70;99.90
42141;DHT22;27809;51.864;5.646;2023-05-10T07:45:28;13.70;99.90
42141;DHT22;27809;51.864;5.646;2023-05-10T07:47:53;13.80;99.90
42141;DHT22;27809;51.864;5.646;2023-05-10T07:50:19;13.70;99.90
42141;DHT22;27809;51.864;5.646;2023-05-10T07:52:46;13.80;99.90
42141;DHT22;27809;51.864;5.646;2023-05-10T07:55:12;13.70;99.90
42141;DHT22;27809;51.864;5.646;2023-05-10T07:57:38;13.70;99.90
42141;DHT22;27809;51.864;5.646;2023-05-10T08:00:04;13.40;99.90
42141;DHT22;27809;51.864;5.646;2023-05-10T08:02:29;13.50;99.90
42141;DHT22;27809;51.864;5.646;2023-05-10T08:04:55;13.50;99.90
42141;DHT22;27809;51.864;5.646;2023-05-10T08:07:21;13.60;99.90
42141;DHT22;27809;51.864;5.646;2023-05-10T08:09:46;13.90;99.90
42141;DHT22;27809;51.864;5.646;2023-05-10T08:12:12;14.10;99.90
42141;DHT22;27809;51.864;5.646;2023-05-10T08:14:37;14.10;99.90
42141;DHT22;27809;51.864;5.646;2023-05-10T08:17:03;14.00;99.90
42141;DHT22;27809;51.864;5.646;2023-05-10T08:19:29;14.10;99.90
42141;DHT22;27809;51.864;5.646;2023-05-10T08:21:55;13.80;99.90
42141;DHT22;27809;51.864;5.646;2023-05-10T08:24:23;13.90;99.90
42141;DHT22;27809;51.864;5.646;2023-05-10T08:26:49;14.20;99.90
42141;DHT22;27809;51.864;5.646;2023-05-10T08:29:15;14.10;99.90
42141;DHT22;27809;51.864;5.646;2023-05-10T08:31:40;13.80;99.90
42141;DHT22;27809;51.864;5.646;2023-05-10T08:34:06;13.70;99.90
42141;DHT22;27809;51.864;5.646;2023-05-10T08:36:31;13.90;99.90
42141;DHT22;27809;51.864;5.646;2023-05-10T08:38:57;13.90;99.90
42141;DHT22;27809;51.864;5.646;2023-05-10T08:41:24;14.00;99.90
42141;DHT22;27809;51.864;5.646;2023-05-10T08:43:54;14.10;99.90
42141;DHT22;27809;51.864;5.646;2023-05-10T08:46:22;13.90;99.90
42141;DHT22;27809;51.864;5.646;2023-05-10T08:48:49;14.00;99.90
42141;DHT22;27809;51.864;5.646;2023-05-10T08:51:18;13.90;99.90
42141;DHT22;27809;51.864;5.646;2023-05-10T08:53:45;14.20;99.90
42141;DHT22;27809;51.864;5.646;2023-05-10T08:56:11;14.10;99.90
42141;DHT22;27809;51.864;5.646;2023-05-10T08:58:37;14.30;99.90
42141;DHT22;27809;51.864;5.646;2023-05-10T09:01:04;14.50;99.90
42141;DHT22;27809;51.864;5.646;2023-05-10T09:03:30;14.80;99.90
42141;DHT22;27809;51.864;5.646;2023-05-10T09:05:56;14.90;99.90
42141;DHT22;27809;51.864;5.646;2023-05-10T09:08:23;14.50;99.90
42141;DHT22;27809;51.864;5.646;2023-05-10T09:10:53;14.30;99.90
42141;DHT22;27809;51.864;5.646;2023-05-10T09:13:21;14.10;99.90
42141;DHT22;27809;51.864;5.646;2023-05-10T09:15:47;14.20;99.90
42141;DHT22;27809;51.864;5.646;2023-05-10T09:18:13;14.50;99.90
42141;DHT22;27809;51.864;5.646;2023-05-10T09:20:39;14.90;99.90
42141;DHT22;27809;51.864;5.646;2023-05-10T09:23:05;15.10;99.90
42141;DHT22;27809;51.864;5.646;2023-05-10T09:25:31;15.10;99.90
42141;DHT22;27809;51.864;5.646;2023-05-10T09:27:59;15.10;99.90
42141;DHT22;27809;51.864;5.646;2023-05-10T09:30:29;15.40;99.90
42141;DHT22;27809;51.864;5.646;2023-05-10T09:32:56;15.50;99.90
42141;DHT22;27809;51.864;5.646;2023-05-10T09:35:24;16.00;99.90
42141;DHT22;27809;51.864;5.646;2023-05-10T09:37:51;16.10;99.90
42141;DHT22;27809;51.864;5.646;2023-05-10T09:40:23;15.70;99.90
42141;DHT22;27809;51.864;5.646;2023-05-10T09:42:55;15.30;99.90
42141;DHT22;27809;51.864;5.646;2023-05-10T09:45:22;15.20;99.90
42141;DHT22;27809;51.864;5.646;2023-05-10T09:47:48;14.90;99.90
42141;DHT22;27809;51.864;5.646;2023-05-10T09:50:13;14.90;99.90
42141;DHT22;27809;51.864;5.646;2023-05-10T09:52:52;15.00;99.90
42141;DHT22;27809;51.864;5.646;2023-05-10T09:55:22;15.10;99.90
42141;DHT22;27809;51.864;5.646;2023-05-10T09:57:49;15.70;99.90
42141;DHT22;27809;51.864;5.646;2023-05-10T10:00:19;18.20;55.40
42141;DHT22;27809;51.864;5.646;2023-05-10T10:02:55;16.10;77.50
42141;DHT22;27809;51.864;5.646;2023-05-10T10:05:21;15.70;99.20
42141;DHT22;27809;51.864;5.646;2023-05-10T10:07:52;19.20;64.70
42141;DHT22;27809;51.864;5.646;2023-05-10T10:10:18;20.80;26.00
42141;DHT22;27809;51.864;5.646;2023-05-10T10:12:44;20.90;19.00
42141;DHT22;27809;51.864;5.646;2023-05-10T10:15:10;20.40;22.70
42141;DHT22;27809;51.864;5.646;2023-05-10T10:17:36;18.30;17.00
42141;DHT22;27809;51.864;5.646;2023-05-10T10:20:03;16.30;52.60
42141;DHT22;27809;51.864;5.646;2023-05-10T10:22:29;15.90;91.20
42141;DHT22;27809;51.864;5.646;2023-05-10T10:24:55;15.90;90.10
42141;DHT22;27809;51.864;5.646;2023-05-10T10:27:43;15.90;88.90
42141;DHT22;27809;51.864;5.646;2023-05-10T10:30:17;16.00;86.20
42141;DHT22;27809;51.864;5.646;2023-05-10T10:35:30;16.10;84.40
42141;DHT22;27809;51.864;5.646;2023-05-10T10:37:56;16.30;89.10
42141;DHT22;27809;51.864;5.646;2023-05-10T10:40:29;16.40;74.60
42141;DHT22;27809;51.864;5.646;2023-05-10T10:42:56;16.40;67.30
42141;DHT22;27809;51.864;5.646;2023-05-10T10:45:26;16.70;88.50
42141;DHT22;27809;51.864;5.646;2023-05-10T10:48:20;16.60;75.50
42141;DHT22;27809;51.864;5.646;2023-05-10T10:50:46;16.60;94.70
42141;DHT22;27809;51.864;5.646;2023-05-10T10:53:12;16.30;82.30
42141;DHT22;27809;51.864;5.646;2023-05-10T10:55:46;16.30;76.80
42141;DHT22;27809;51.864;5.646;2023-05-10T10:58:29;16.50;70.50
42141;DHT22;27809;51.864;5.646;2023-05-10T11:01:16;16.70;70.30
42141;DHT22;27809;51.864;5.646;2023-05-10T11:09:10;18.50;15.80
42141;DHT22;27809;51.864;5.646;2023-05-10T11:11:48;17.00;47.80
42141;DHT22;27809;51.864;5.646;2023-05-10T11:14:14;16.80;54.20
42141;DHT22;27809;51.864;5.646;2023-05-10T11:16:43;16.90;71.70
42141;DHT22;27809;51.864;5.646;2023-05-10T11:19:14;17.30;69.10
42141;DHT22;27809;51.864;5.646;2023-05-10T11:21:52;18.00;68.10
42141;DHT22;27809;51.864;5.646;2023-05-10T11:24:36;18.10;59.20
42141;DHT22;27809;51.864;5.646;2023-05-10T11:27:02;18.20;51.60
42141;DHT22;27809;51.864;5.646;2023-05-10T11:29:27;17.80;34.00
42141;DHT22;27809;51.864;5.646;2023-05-10T11:31:57;18.00;51.30
42141;DHT22;27809;51.864;5.646;2023-05-10T11:34:24;17.80;48.10
42141;DHT22;27809;51.864;5.646;2023-05-10T11:36:54;17.80;64.10
42141;DHT22;27809;51.864;5.646;2023-05-10T11:39:21;17.80;56.90
42141;DHT22;27809;51.864;5.646;2023-05-10T11:41:50;17.90;51.40
42141;DHT22;27809;51.864;5.646;2023-05-10T11:44:15;17.50;52.30
42141;DHT22;27809;51.864;5.646;2023-05-10T11:46:41;17.20;66.90
42141;DHT22;27809;51.864;5.646;2023-05-10T11:49:07;17.20;69.00
42141;DHT22;27809;51.864;5.646;2023-05-10T11:51:34;17.60;71.40
42141;DHT22;27809;51.864;5.646;2023-05-10T11:54:05;17.40;64.10
42141;DHT22;27809;51.864;5.646;2023-05-10T11:56:32;17.30;62.00
42141;DHT22;27809;51.864;5.646;2023-05-10T11:58:58;17.20;58.60
42141;DHT22;27809;51.864;5.646;2023-05-10T12:01:26;17.00;65.80
42141;DHT22;27809;51.864;5.646;2023-05-10T12:03:53;16.70;69.60
42141;DHT22;27809;51.864;5.646;2023-05-10T12:06:20;16.60;64.00
42141;DHT22;27809;51.864;5.646;2023-05-10T12:08:47;16.50;59.90
42141;DHT22;27809;51.864;5.646;2023-05-10T12:11:13;16.30;67.60
42141;DHT22;27809;51.864;5.646;2023-05-10T12:13:42;18.70;67.20
42141;DHT22;27809;51.864;5.646;2023-05-10T12:16:22;19.10;22.10
42141;DHT22;27809;51.864;5.646;2023-05-10T12:18:49;17.10;70.30
42141;DHT22;27809;51.864;5.646;2023-05-10T12:21:17;16.60;81.10
42141;DHT22;27809;51.864;5.646;2023-05-10T12:23:45;16.30;81.80
42141;DHT22;27809;51.864;5.646;2023-05-10T12:26:11;16.40;90.70
42141;DHT22;27809;51.864;5.646;2023-05-10T12:28:37;16.40;98.10
42141;DHT22;27809;51.864;5.646;2023-05-10T12:31:05;16.20;94.00
42141;DHT22;27809;51.864;5.646;2023-05-10T12:33:38;16.20;99.70
42141;DHT22;27809;51.864;5.646;2023-05-10T12:36:05;16.20;99.70
42141;DHT22;27809;51.864;5.646;2023-05-10T12:38:32;16.10;99.90
42141;DHT22;27809;51.864;5.646;2023-05-10T12:41:03;15.80;99.90
42141;DHT22;27809;51.864;5.646;2023-05-10T12:43:29;15.80;99.90
42141;DHT22;27809;51.864;5.646;2023-05-10T12:45:55;15.80;99.90
42141;DHT22;27809;51.864;5.646;2023-05-10T12:48:20;15.70;99.90
42141;DHT22;27809;51.864;5.646;2023-05-10T12:50:46;15.80;99.90
42141;DHT22;27809;51.864;5.646;2023-05-10T12:53:14;15.90;99.90
42141;DHT22;27809;51.864;5.646;2023-05-10T12:55:43;15.90;99.90
42141;DHT22;27809;51.864;5.646;2023-05-10T12:58:09;15.80;99.90
42141;DHT22;27809;51.864;5.646;2023-05-10T13:00:35;15.70;99.90
42141;DHT22;27809;51.864;5.646;2023-05-10T13:03:06;15.70;99.90
42141;DHT22;27809;51.864;5.646;2023-05-10T13:05:34;15.50;99.90
42141;DHT22;27809;51.864;5.646;2023-05-10T13:08:00;15.50;99.90
42141;DHT22;27809;51.864;5.646;2023-05-10T13:10:26;15.50;99.90
42141;DHT22;27809;51.864;5.646;2023-05-10T13:12:51;15.50;99.90
42141;DHT22;27809;51.864;5.646;2023-05-10T13:15:17;15.40;99.90
42141;DHT22;27809;51.864;5.646;2023-05-10T13:17:42;15.60;99.90
42141;DHT22;27809;51.864;5.646;2023-05-10T13:20:09;15.70;99.90
42141;DHT22;27809;51.864;5.646;2023-05-10T13:22:35;15.70;99.90
42141;DHT22;27809;51.864;5.646;2023-05-10T13:25:01;15.70;99.90
42141;DHT22;27809;51.864;5.646;2023-05-10T13:27:26;15.70;99.90
42141;DHT22;27809;51.864;5.646;2023-05-10T13:29:53;15.80;99.90
42141;DHT22;27809;51.864;5.646;2023-05-10T13:32:18;15.80;99.90
42141;DHT22;27809;51.864;5.646;2023-05-10T13:34:44;15.80;99.90
42141;DHT22;27809;51.864;5.646;2023-05-10T13:37:09;15.80;99.90
42141;DHT22;27809;51.864;5.646;2023-05-10T13:39:35;15.60;99.90
42141;DHT22;27809;51.864;5.646;2023-05-10T13:42:03;15.60;99.90
42141;DHT22;27809;51.864;5.646;2023-05-10T13:44:28;15.50;99.90
42141;DHT22;27809;51.864;5.646;2023-05-10T13:46:54;15.50;99.90
42141;DHT22;27809;51.864;5.646;2023-05-10T13:49:20;15.40;99.90
42141;DHT22;27809;51.864;5.646;2023-05-10T13:51:47;15.50;99.90
42141;DHT22;27809;51.864;5.646;2023-05-10T13:54:12;15.60;99.90
42141;DHT22;27809;51.864;5.646;2023-05-10T13:56:38;15.70;99.90
42141;DHT22;27809;51.864;5.646;2023-05-10T13:59:04;15.90;99.90
42141;DHT22;27809;51.864;5.646;2023-05-10T14:01:29;15.60;99.90
42141;DHT22;27809;51.864;5.646;2023-05-10T14:03:55;15.50;99.90
42141;DHT22;27809;51.864;5.646;2023-05-10T14:06:20;15.30;99.90
42141;DHT22;27809;51.864;5.646;2023-05-10T14:08:46;15.60;99.90
42141;DHT22;27809;51.864;5.646;2023-05-10T14:11:12;15.60;99.90
42141;DHT22;27809;51.864;5.646;2023-05-10T14:13:38;15.70;99.90
42141;DHT22;27809;51.864;5.646;2023-05-10T14:16:04;15.90;99.90
42141;DHT22;27809;51.864;5.646;2023-05-10T14:18:29;15.80;99.90
42141;DHT22;27809;51.864;5.646;2023-05-10T14:20:55;15.70;99.90
42141;DHT22;27809;51.864;5.646;2023-05-10T14:23:22;15.40;99.90
42141;DHT22;27809;51.864;5.646;2023-05-10T14:25:50;15.60;99.90
42141;DHT22;27809;51.864;5.646;2023-05-10T14:28:16;15.60;99.90
42141;DHT22;27809;51.864;5.646;2023-05-10T14:30:42;15.50;99.90
42141;DHT22;27809;51.864;5.646;2023-05-10T14:33:08;15.50;99.90
42141;DHT22;27809;51.864;5.646;2023-05-10T14:35:34;15.30;99.90
42141;DHT22;27809;51.864;5.646;2023-05-10T14:37:59;15.50;99.90
42141;DHT22;27809;51.864;5.646;2023-05-10T14:40:25;15.60;99.90
42141;DHT22;27809;51.864;5.646;2023-05-10T14:42:51;15.90;99.90
42141;DHT22;27809;51.864;5.646;2023-05-10T14:45:18;15.90;99.90
42141;DHT22;27809;51.864;5.646;2023-05-10T14:47:43;15.80;99.90
42141;DHT22;27809;51.864;5.646;2023-05-10T14:50:09;15.90;99.90
42141;DHT22;27809;51.864;5.646;2023-05-10T14:52:35;16.10;99.90
42141;DHT22;27809;51.864;5.646;2023-05-10T14:55:01;15.90;99.90
42141;DHT22;27809;51.864;5.646;2023-05-10T14:57:27;15.90;99.90
42141;DHT22;27809;51.864;5.646;2023-05-10T14:59:55;15.70;99.90
42141;DHT22;27809;51.864;5.646;2023-05-10T15:02:21;16.00;99.90
42141;DHT22;27809;51.864;5.646;2023-05-10T15:04:47;16.20;99.90
42141;DHT22;27809;51.864;5.646;2023-05-10T15:07:12;16.40;99.90
42141;DHT22;27809;51.864;5.646;2023-05-10T15:09:40;16.40;99.90
42141;DHT22;27809;51.864;5.646;2023-05-10T15:12:05;16.60;99.90
42141;DHT22;27809;51.864;5.646;2023-05-10T15:14:31;16.60;99.90
42141;DHT22;27809;51.864;5.646;2023-05-10T15:16:58;16.80;99.90
42141;DHT22;27809;51.864;5.646;2023-05-10T15:19:23;17.10;96.60
42141;DHT22;27809;51.864;5.646;2023-05-10T15:21:49;17.20;94.20
42141;DHT22;27809;51.864;5.646;2023-05-10T15:24:14;17.40;98.50
42141;DHT22;27809;51.864;5.646;2023-05-10T15:26:40;18.00;96.50
42141;DHT22;27809;51.864;5.646;2023-05-10T15:29:06;18.00;91.50
42141;DHT22;27809;51.864;5.646;2023-05-10T15:31:31;17.90;94.00
42141;DHT22;27809;51.864;5.646;2023-05-10T15:34:00;18.00;97.30
42141;DHT22;27809;51.864;5.646;2023-05-10T15:36:25;17.30;94.40
42141;DHT22;27809;51.864;5.646;2023-05-10T15:38:51;17.40;95.60
42141;DHT22;27809;51.864;5.646;2023-05-10T15:41:16;17.20;99.10
42141;DHT22;27809;51.864;5.646;2023-05-10T15:43:42;16.80;99.90
42141;DHT22;27809;51.864;5.646;2023-05-10T15:46:07;17.10;99.90
42141;DHT22;27809;51.864;5.646;2023-05-10T15:48:33;17.60;91.00
42141;DHT22;27809;51.864;5.646;2023-05-10T15:50:59;18.00;81.20
42141;DHT22;27809;51.864;5.646;2023-05-10T15:53:24;17.90;78.20